createdAt,value
2023-01-30T00:00:24.761Z,487.00
2023-01-30T00:01:24.715Z,485.00
2023-01-30T00:02:24.695Z,483.00
2023-01-30T00:03:24.640Z,484.00
2023-01-30T00:54:54.007Z,481.00
2023-01-30T00:55:54.970Z,480.00
2023-01-30T00:56:54.909Z,482.00
2023-01-30T00:57:54.861Z,483.00
2023-01-30T00:58:54.815Z,486.00
2023-01-30T00:59:54.764Z,487.00
2023-01-30T01:00:54.716Z,486.00
2023-01-30T01:01:54.783Z,484.00
2023-01-30T01:02:54.655Z,482.00
2023-01-30T01:03:54.598Z,480.00
2023-01-30T01:04:54.559Z,480.00
2023-01-30T01:05:54.519Z,482.00
2023-01-30T01:06:54.494Z,483.00
2023-01-30T01:07:54.443Z,487.00
2023-01-30T01:08:54.415Z,489.00
2023-01-30T01:09:54.374Z,490.00
2023-01-30T01:10:54.317Z,490.00
2023-01-30T01:11:54.274Z,488.00
2023-01-30T01:12:54.233Z,486.00
2023-01-30T01:13:54.195Z,484.00
2023-01-30T01:14:54.156Z,485.00
2023-01-30T01:15:54.139Z,483.00
2023-01-30T01:16:54.074Z,483.00
2023-01-30T01:17:54.033Z,484.00
2023-01-30T01:18:53.995Z,485.00
2023-01-30T01:19:53.951Z,485.00
2023-01-30T01:20:53.910Z,482.00
2023-01-30T01:21:53.858Z,479.00
2023-01-30T01:22:53.852Z,477.00
2023-01-30T01:23:53.776Z,476.00
2023-01-30T01:24:53.733Z,478.00
2023-01-30T01:25:53.699Z,479.00
2023-01-30T01:26:53.668Z,479.00
2023-01-30T01:27:53.619Z,478.00
2023-01-30T01:28:53.569Z,478.00
2023-01-30T01:29:54.375Z,478.00
2023-01-30T01:30:53.493Z,477.00
2023-01-30T01:31:53.506Z,478.00
2023-01-30T01:32:53.414Z,480.00
2023-01-30T01:33:53.379Z,483.00
2023-01-30T01:34:53.362Z,485.00
2023-01-30T01:35:53.302Z,484.00
2023-01-30T01:36:54.217Z,483.00
2023-01-30T01:37:53.291Z,483.00
2023-01-30T01:38:53.173Z,484.00
2023-01-30T01:39:53.151Z,485.00
2023-01-30T01:40:53.169Z,487.00
2023-01-30T01:41:53.066Z,486.00
2023-01-30T01:42:53.020Z,488.00
2023-01-30T01:43:52.968Z,486.00
2023-01-30T01:44:52.965Z,485.00
2023-01-30T01:45:52.929Z,488.00
2023-01-30T01:46:52.857Z,490.00
2023-01-30T01:47:52.796Z,491.00
2023-01-30T01:48:52.768Z,492.00
2023-01-30T01:49:52.692Z,488.00
2023-01-30T01:50:52.680Z,489.00
2023-01-30T01:51:52.614Z,491.00
2023-01-30T01:52:52.568Z,490.00
2023-01-30T01:53:52.566Z,488.00
2023-01-30T01:54:52.520Z,488.00
2023-01-30T01:55:52.470Z,489.00
2023-01-30T01:56:52.371Z,486.00
2023-01-30T01:57:52.329Z,487.00
2023-01-30T01:58:52.278Z,483.00
2023-01-30T01:59:52.223Z,483.00
2023-01-30T02:00:52.241Z,485.00
2023-01-30T02:01:52.161Z,485.00
2023-01-30T02:02:52.092Z,485.00
2023-01-30T02:03:52.039Z,484.00
2023-01-30T02:04:51.996Z,484.00
2023-01-30T02:05:51.940Z,484.00
2023-01-30T02:06:51.891Z,483.00
2023-01-30T02:07:51.839Z,484.00
2023-01-30T02:08:51.836Z,484.00
2023-01-30T02:09:51.749Z,485.00
2023-01-30T02:10:51.697Z,486.00
2023-01-30T02:11:51.670Z,486.00
2023-01-30T02:12:51.619Z,483.00
2023-01-30T02:13:51.590Z,483.00
2023-01-30T02:14:51.525Z,484.00
2023-01-30T02:15:51.480Z,483.00
2023-01-30T02:16:51.436Z,485.00
2023-01-30T02:17:51.504Z,484.00
2023-01-30T02:18:51.404Z,485.00
2023-01-30T02:19:51.301Z,489.00
2023-01-30T02:20:51.257Z,492.00
2023-01-30T02:21:51.223Z,492.00
2023-01-30T02:22:51.172Z,493.00
2023-01-30T02:23:51.159Z,491.00
2023-01-30T02:24:51.078Z,490.00
2023-01-30T02:25:51.030Z,486.00
2023-01-30T02:26:51.002Z,487.00
2023-01-30T02:27:50.945Z,486.00
2023-01-30T02:28:50.930Z,487.00
2023-01-30T02:29:50.850Z,488.00
2023-01-30T02:30:50.946Z,489.00
2023-01-30T02:31:50.776Z,491.00
2023-01-30T02:32:50.778Z,490.00
2023-01-30T02:33:50.666Z,492.00
2023-01-30T02:34:50.658Z,491.00
2023-01-30T02:35:50.572Z,490.00
2023-01-30T02:36:50.536Z,488.00
2023-01-30T02:37:50.486Z,489.00
2023-01-30T02:38:50.438Z,489.00
2023-01-30T02:39:50.394Z,489.00
2023-01-30T02:40:50.345Z,491.00
2023-01-30T02:41:50.322Z,492.00
2023-01-30T02:42:50.250Z,492.00
2023-01-30T02:43:50.205Z,491.00
2023-01-30T02:44:50.160Z,491.00
2023-01-30T02:45:50.293Z,492.00
2023-01-30T02:46:50.083Z,491.00
2023-01-30T02:47:50.042Z,492.00
2023-01-30T02:48:50.006Z,494.00
2023-01-30T02:49:49.952Z,492.00
2023-01-30T02:50:49.914Z,492.00
2023-01-30T02:51:49.891Z,490.00
2023-01-30T02:52:49.845Z,491.00
2023-01-30T02:53:49.803Z,489.00
2023-01-30T02:54:49.726Z,490.00
2023-01-30T02:55:49.681Z,489.00
2023-01-30T02:56:49.660Z,494.00
2023-01-30T02:57:49.583Z,491.00
2023-01-30T02:58:49.548Z,490.00
2023-01-30T02:59:49.507Z,489.00
2023-01-30T03:00:49.463Z,488.00
2023-01-30T03:01:49.451Z,486.00
2023-01-30T03:02:49.414Z,487.00
2023-01-30T03:03:49.348Z,486.00
2023-01-30T03:04:49.309Z,485.00
2023-01-30T03:05:49.333Z,486.00
2023-01-30T03:06:49.212Z,486.00
2023-01-30T03:07:49.167Z,485.00
2023-01-30T03:08:49.125Z,483.00
2023-01-30T03:09:49.081Z,485.00
2023-01-30T03:10:49.039Z,484.00
2023-01-30T03:11:49.048Z,484.00
2023-01-30T03:12:48.950Z,485.00
2023-01-30T03:13:48.894Z,486.00
2023-01-30T03:14:48.865Z,487.00
2023-01-30T03:15:48.971Z,484.00
2023-01-30T03:16:48.771Z,487.00
2023-01-30T03:17:48.754Z,486.00
2023-01-30T03:18:48.674Z,486.00
2023-01-30T03:19:48.651Z,485.00
2023-01-30T03:20:48.590Z,485.00
2023-01-30T03:21:48.539Z,486.00
2023-01-30T03:22:48.535Z,487.00
2023-01-30T03:23:48.457Z,488.00
2023-01-30T03:24:48.413Z,490.00
2023-01-30T03:25:48.387Z,490.00
2023-01-30T03:26:48.341Z,489.00
2023-01-30T03:27:48.299Z,491.00
2023-01-30T03:28:48.260Z,489.00
2023-01-30T03:29:48.217Z,488.00
2023-01-30T03:30:48.301Z,489.00
2023-01-30T03:31:48.204Z,490.00
2023-01-30T03:32:48.112Z,487.00
2023-01-30T03:33:48.047Z,486.00
2023-01-30T03:34:47.999Z,486.00
2023-01-30T03:35:47.956Z,487.00
2023-01-30T03:36:47.922Z,490.00
2023-01-30T03:37:47.908Z,490.00
2023-01-30T03:38:47.816Z,488.00
2023-01-30T03:39:47.774Z,487.00
2023-01-30T03:40:47.735Z,488.00
2023-01-30T03:41:47.746Z,488.00
2023-01-30T03:42:47.678Z,488.00
2023-01-30T03:43:47.617Z,486.00
2023-01-30T03:44:47.584Z,485.00
2023-01-30T03:45:47.579Z,488.00
2023-01-30T03:46:47.508Z,488.00
2023-01-30T03:47:47.434Z,491.00
2023-01-30T03:48:47.391Z,491.00
2023-01-30T03:49:47.356Z,491.00
2023-01-30T03:50:47.310Z,489.00
2023-01-30T03:51:47.278Z,487.00
2023-01-30T03:52:47.271Z,489.00
2023-01-30T03:53:47.193Z,488.00
2023-01-30T03:54:47.150Z,487.00
2023-01-30T03:55:47.100Z,487.00
2023-01-30T03:56:47.120Z,483.00
2023-01-30T03:57:47.033Z,483.00
2023-01-30T03:58:46.989Z,485.00
2023-01-30T03:59:46.956Z,483.00
2023-01-30T04:00:46.932Z,487.00
2023-01-30T04:01:46.948Z,489.00
2023-01-30T04:02:46.870Z,493.00
2023-01-30T04:03:46.782Z,491.00
2023-01-30T04:04:46.742Z,491.00
2023-01-30T04:05:46.696Z,491.00
2023-01-30T04:06:46.665Z,489.00
2023-01-30T04:07:46.615Z,488.00
2023-01-30T04:08:46.578Z,485.00
2023-01-30T04:09:46.542Z,483.00
2023-01-30T04:10:46.514Z,483.00
2023-01-30T04:11:46.469Z,484.00
2023-01-30T04:12:46.448Z,486.00
2023-01-30T04:13:46.397Z,485.00
2023-01-30T04:14:46.351Z,485.00
2023-01-30T04:15:46.313Z,486.00
2023-01-30T04:16:46.364Z,487.00
2023-01-30T04:17:46.304Z,488.00
2023-01-30T04:18:46.209Z,488.00
2023-01-30T04:19:46.198Z,490.00
2023-01-30T04:20:46.122Z,488.00
2023-01-30T04:21:46.073Z,492.00
2023-01-30T04:22:46.031Z,492.00
2023-01-30T04:23:45.981Z,492.00
2023-01-30T04:24:46.009Z,492.00
2023-01-30T04:25:45.910Z,492.00
2023-01-30T04:26:46.108Z,491.00
2023-01-30T04:27:45.826Z,493.00
2023-01-30T04:28:45.796Z,492.00
2023-01-30T04:29:45.746Z,493.00
2023-01-30T04:30:45.792Z,494.00
2023-01-30T04:31:45.668Z,493.00
2023-01-30T04:32:45.723Z,492.00
2023-01-30T04:33:45.586Z,490.00
2023-01-30T04:34:45.561Z,492.00
2023-01-30T04:35:45.515Z,491.00
2023-01-30T04:36:45.482Z,489.00
2023-01-30T04:37:45.467Z,488.00
2023-01-30T04:38:45.415Z,489.00
2023-01-30T04:39:45.343Z,490.00
2023-01-30T04:40:45.299Z,492.00
2023-01-30T04:41:45.257Z,489.00
2023-01-30T04:42:45.222Z,488.00
2023-01-30T04:43:45.220Z,487.00
2023-01-30T04:44:45.141Z,487.00
2023-01-30T04:45:45.104Z,485.00
2023-01-30T04:46:45.078Z,487.00
2023-01-30T04:47:45.174Z,486.00
2023-01-30T04:48:45.028Z,486.00
2023-01-30T04:49:44.962Z,486.00
2023-01-30T04:50:44.946Z,489.00
2023-01-30T04:51:44.894Z,491.00
2023-01-30T04:52:44.875Z,492.00
2023-01-30T04:53:44.891Z,490.00
2023-01-30T04:54:44.793Z,488.00
2023-01-30T04:55:44.753Z,490.00
2023-01-30T04:56:44.712Z,488.00
2023-01-30T04:57:44.685Z,486.00
2023-01-30T04:58:44.665Z,489.00
2023-01-30T04:59:44.591Z,488.00
2023-01-30T05:00:44.597Z,488.00
2023-01-30T05:01:44.510Z,489.00
2023-01-30T05:02:44.468Z,489.00
2023-01-30T05:03:44.459Z,490.00
2023-01-30T05:04:44.409Z,490.00
2023-01-30T05:05:44.353Z,488.00
2023-01-30T05:06:44.309Z,486.00
2023-01-30T05:07:44.264Z,486.00
2023-01-30T05:08:46.748Z,488.00
2023-01-30T05:09:44.191Z,488.00
2023-01-30T05:10:44.142Z,487.00
2023-01-30T05:11:44.102Z,487.00
2023-01-30T05:12:44.060Z,487.00
2023-01-30T05:13:44.081Z,487.00
2023-01-30T05:14:43.996Z,489.00
2023-01-30T05:15:43.931Z,490.00
2023-01-30T05:16:43.891Z,489.00
2023-01-30T05:17:44.798Z,491.00
2023-01-30T05:18:43.836Z,490.00
2023-01-30T05:19:43.775Z,494.00
2023-01-30T05:20:43.755Z,494.00
2023-01-30T05:21:43.687Z,495.00
2023-01-30T05:22:43.644Z,493.00
2023-01-30T05:23:43.611Z,493.00
2023-01-30T05:24:43.573Z,490.00
2023-01-30T05:25:43.526Z,490.00
2023-01-30T05:26:43.555Z,493.00
2023-01-30T05:27:43.451Z,494.00
2023-01-30T05:28:43.401Z,494.00
2023-01-30T05:29:43.366Z,494.00
2023-01-30T05:30:44.583Z,495.00
2023-01-30T05:31:43.343Z,495.00
2023-01-30T05:32:43.255Z,496.00
2023-01-30T05:33:43.205Z,496.00
2023-01-30T05:34:43.171Z,496.00
2023-01-30T05:35:43.126Z,494.00
2023-01-30T05:36:43.104Z,493.00
2023-01-30T05:37:43.040Z,493.00
2023-01-30T05:38:42.996Z,493.00
2023-01-30T05:39:42.980Z,495.00
2023-01-30T05:40:42.913Z,495.00
2023-01-30T05:41:42.878Z,496.00
2023-01-30T05:42:42.836Z,496.00
2023-01-30T05:43:42.791Z,497.00
2023-01-30T05:44:42.749Z,498.00
2023-01-30T05:45:42.708Z,496.00
2023-01-30T05:46:42.704Z,495.00
2023-01-30T05:47:42.654Z,497.00
2023-01-30T05:48:42.587Z,495.00
2023-01-30T05:49:42.543Z,497.00
2023-01-30T05:50:42.501Z,499.00
2023-01-30T05:51:42.452Z,498.00
2023-01-30T05:52:42.448Z,494.00
2023-01-30T05:53:42.375Z,493.00
2023-01-30T05:54:42.336Z,491.00
2023-01-30T05:55:42.298Z,490.00
2023-01-30T05:56:42.254Z,487.00
2023-01-30T05:57:42.217Z,485.00
2023-01-30T05:58:42.275Z,485.00
2023-01-30T05:59:42.170Z,485.00
2023-01-30T06:00:42.100Z,489.00
2023-01-30T06:01:42.052Z,488.00
2023-01-30T06:02:42.044Z,488.00
2023-01-30T06:03:41.982Z,487.00
2023-01-30T06:04:41.929Z,485.00
2023-01-30T06:05:41.885Z,484.00
2023-01-30T06:06:41.845Z,483.00
2023-01-30T06:07:41.809Z,488.00
2023-01-30T06:08:41.788Z,488.00
2023-01-30T06:09:41.727Z,489.00
2023-01-30T06:10:41.688Z,489.00
2023-01-30T06:11:41.653Z,488.00
2023-01-30T06:12:41.617Z,491.00
2023-01-30T06:13:41.763Z,492.00
2023-01-30T06:14:41.506Z,494.00
2023-01-30T06:15:41.537Z,493.00
2023-01-30T06:16:41.507Z,494.00
2023-01-30T06:17:41.404Z,496.00
2023-01-30T06:18:41.515Z,496.00
2023-01-30T06:19:41.317Z,496.00
2023-01-30T06:20:41.274Z,498.00
2023-01-30T06:21:41.251Z,501.00
2023-01-30T06:22:41.557Z,503.00
2023-01-30T06:23:41.156Z,507.00
2023-01-30T06:24:41.134Z,512.00
2023-01-30T06:25:41.074Z,517.00
2023-01-30T06:26:41.086Z,522.00
2023-01-30T06:27:40.992Z,528.00
2023-01-30T06:28:40.959Z,532.00
2023-01-30T06:29:40.909Z,532.00
2023-01-30T06:30:40.947Z,531.00
2023-01-30T06:31:40.883Z,534.00
2023-01-30T06:32:40.785Z,538.00
2023-01-30T06:33:40.782Z,543.00
2023-01-30T06:34:40.701Z,548.00
2023-01-30T06:35:40.655Z,554.00
2023-01-30T06:36:40.614Z,556.00
2023-01-30T06:37:40.580Z,558.00
2023-01-30T06:38:40.988Z,562.00
2023-01-30T06:39:40.529Z,566.00
2023-01-30T06:40:40.486Z,568.00
2023-01-30T06:41:40.519Z,570.00
2023-01-30T06:42:40.643Z,572.00
2023-01-30T06:43:40.357Z,572.00
2023-01-30T06:44:40.516Z,580.00
2023-01-30T06:45:40.303Z,584.00
2023-01-30T06:46:40.241Z,593.00
2023-01-30T06:47:40.203Z,599.00
2023-01-30T06:48:40.171Z,645.00
2023-01-30T06:49:47.028Z,651.00
2023-01-30T06:50:40.540Z,649.00
2023-01-30T06:51:40.079Z,647.00
2023-01-30T06:52:40.042Z,651.00
2023-01-30T06:53:40.003Z,672.00
2023-01-30T06:54:40.102Z,728.00
2023-01-30T06:55:39.942Z,747.00
2023-01-30T06:56:39.929Z,797.00
2023-01-30T06:57:40.040Z,792.00
2023-01-30T06:58:40.222Z,799.00
2023-01-30T06:59:43.001Z,807.00
2023-01-30T07:00:40.053Z,841.00
2023-01-30T07:01:39.767Z,960.00
2023-01-30T07:02:39.698Z,961.00
2023-01-30T07:03:39.692Z,969.00
2023-01-30T07:05:39.955Z,1031.00
2023-01-30T07:06:40.313Z,1053.00
2023-01-30T07:07:39.520Z,1074.00
2023-01-30T07:08:39.467Z,1093.00
2023-01-30T07:09:39.427Z,1112.00
2023-01-30T07:10:39.645Z,1141.00
2023-01-30T07:11:40.007Z,1171.00
2023-01-30T07:12:39.882Z,1206.00
2023-01-30T07:13:39.257Z,1229.00
2023-01-30T07:14:39.203Z,1247.00
2023-01-30T07:15:39.132Z,1280.00
2023-01-30T07:16:39.539Z,1326.00
2023-01-30T07:17:39.058Z,1348.00
2023-01-30T07:18:39.017Z,1366.00
2023-01-30T07:19:38.966Z,1382.00
2023-01-30T07:20:38.899Z,1490.00
2023-01-30T07:21:38.863Z,1479.00
2023-01-30T07:22:38.818Z,1497.00
2023-01-30T07:23:38.755Z,1560.00
2023-01-30T07:24:39.025Z,1581.00
2023-01-30T07:25:38.686Z,1595.00
2023-01-30T07:26:39.079Z,1613.00
2023-01-30T07:27:38.560Z,1636.00
2023-01-30T07:28:38.523Z,1662.00
2023-01-30T07:29:38.453Z,1700.00
2023-01-30T07:30:38.442Z,1720.00
2023-01-30T07:31:38.587Z,1743.00
2023-01-30T07:32:38.287Z,1767.00
2023-01-30T07:33:38.232Z,1809.00
2023-01-30T07:34:38.167Z,1825.00
2023-01-30T07:35:38.164Z,1846.00
2023-01-30T07:36:38.732Z,1883.00
2023-01-30T07:37:45.469Z,1911.00
2023-01-30T07:38:38.032Z,1926.00
2023-01-30T07:39:38.029Z,1957.00
2023-01-30T07:40:37.863Z,1982.00
2023-01-30T07:41:38.033Z,2003.00
2023-01-30T07:42:37.727Z,2038.00
2023-01-30T07:43:37.692Z,2088.00
2023-01-30T07:44:38.369Z,2070.00
2023-01-30T07:45:37.581Z,2063.00
2023-01-30T07:46:37.595Z,2054.00
2023-01-30T07:47:37.473Z,2046.00
2023-01-30T07:48:37.430Z,1791.00
2023-01-30T07:49:37.378Z,1692.00
2023-01-30T07:50:37.317Z,1761.00
2023-01-30T07:51:37.583Z,1857.00
2023-01-30T07:52:37.206Z,1804.00
2023-01-30T07:53:37.163Z,1491.00
2023-01-30T07:54:37.600Z,1391.00
2023-01-30T07:55:37.250Z,1601.00
2023-01-30T07:56:38.236Z,1630.00
2023-01-30T07:57:37.417Z,1651.00
2023-01-30T07:58:37.234Z,1692.00
2023-01-30T07:59:37.394Z,1756.00
2023-01-30T08:00:37.694Z,1779.00
2023-01-30T08:01:37.054Z,1799.00
2023-01-30T08:02:37.090Z,1828.00
2023-01-30T08:03:37.134Z,1865.00
2023-01-30T08:04:52.582Z,1893.00
2023-01-30T08:05:36.761Z,1911.00
2023-01-30T08:06:36.883Z,1928.00
2023-01-30T08:07:36.915Z,1970.00
2023-01-30T08:08:37.465Z,1987.00
2023-01-30T08:09:36.848Z,2007.00
2023-01-30T08:10:36.907Z,2029.00
2023-01-30T08:11:36.318Z,2049.00
2023-01-30T08:12:36.759Z,2087.00
2023-01-30T08:13:36.612Z,2114.00
2023-01-30T08:14:36.497Z,2146.00
2023-01-30T08:15:36.630Z,2171.00
2023-01-30T08:16:36.988Z,2217.00
2023-01-30T08:17:36.969Z,2225.00
2023-01-30T08:18:36.148Z,2251.00
2023-01-30T08:19:36.054Z,2274.00
2023-01-30T08:20:36.077Z,2294.00
2023-01-30T08:21:36.039Z,2341.00
2023-01-30T08:22:36.068Z,2374.00
2023-01-30T08:23:35.503Z,2392.00
2023-01-30T08:24:35.458Z,2408.00
2023-01-30T08:25:35.394Z,2438.00
2023-01-30T08:26:35.397Z,2475.00
2023-01-30T08:27:35.601Z,2533.00
2023-01-30T08:28:35.234Z,2514.00
2023-01-30T08:29:35.176Z,2254.00
2023-01-30T08:30:35.403Z,2432.00
2023-01-30T08:31:35.145Z,2474.00
2023-01-30T08:32:35.030Z,2466.00
2023-01-30T08:33:36.038Z,2456.00
2023-01-30T08:34:34.895Z,2444.00
2023-01-30T08:35:34.835Z,2426.00
2023-01-30T08:36:34.787Z,2403.00
2023-01-30T08:37:38.266Z,2372.00
2023-01-30T08:38:34.693Z,1648.00
2023-01-30T08:39:36.997Z,1386.00
2023-01-30T08:40:34.607Z,1190.00
2023-01-30T08:41:41.994Z,1357.00
2023-01-30T08:42:34.547Z,1464.00
2023-01-30T08:43:34.901Z,1630.00
2023-01-30T08:44:34.471Z,1776.00
2023-01-30T08:45:34.413Z,1812.00
2023-01-30T08:46:35.106Z,1825.00
2023-01-30T08:47:34.308Z,1834.00
2023-01-30T08:48:47.691Z,1855.00
2023-01-30T08:49:34.257Z,1901.00
2023-01-30T08:50:34.553Z,1941.00
2023-01-30T08:51:34.159Z,1945.00
2023-01-30T08:52:34.111Z,1639.00
2023-01-30T08:53:34.077Z,1287.00
2023-01-30T08:54:34.047Z,1155.00
2023-01-30T08:55:34.088Z,1229.00
2023-01-30T08:56:33.985Z,1556.00
2023-01-30T08:57:34.051Z,1699.00
2023-01-30T08:58:33.917Z,1734.00
2023-01-30T08:59:34.175Z,1798.00
2023-01-30T09:00:33.825Z,1794.00
2023-01-30T09:01:33.893Z,1789.00
2023-01-30T09:02:34.585Z,1786.00
2023-01-30T09:03:33.710Z,1785.00
2023-01-30T09:04:33.718Z,1790.00
2023-01-30T09:05:33.651Z,1800.00
2023-01-30T09:06:33.597Z,1818.00
2023-01-30T09:07:33.561Z,1840.00
2023-01-30T09:08:33.507Z,1859.00
2023-01-30T09:09:33.473Z,1910.00
2023-01-30T09:10:33.419Z,1934.00
2023-01-30T09:11:33.373Z,1939.00
2023-01-30T09:12:33.581Z,1945.00
2023-01-30T09:13:33.294Z,1956.00
2023-01-30T09:14:33.283Z,1970.00
2023-01-30T09:15:33.241Z,1978.00
2023-01-30T09:16:33.245Z,1989.00
2023-01-30T09:17:33.577Z,2003.00
2023-01-30T09:18:34.049Z,2022.00
2023-01-30T09:19:33.070Z,2067.00
2023-01-30T09:20:32.965Z,2078.00
2023-01-30T09:21:32.891Z,2093.00
2023-01-30T09:22:32.837Z,2108.00
2023-01-30T09:23:32.799Z,2130.00
2023-01-30T09:24:33.074Z,2145.00
2023-01-30T09:25:32.696Z,2165.00
2023-01-30T09:26:32.711Z,2176.00
2023-01-30T09:27:32.591Z,2187.00
2023-01-30T09:28:32.544Z,2203.00
2023-01-30T09:29:32.569Z,2211.00
2023-01-30T09:30:32.560Z,2224.00
2023-01-30T09:31:32.488Z,2250.00
2023-01-30T09:32:32.340Z,2284.00
2023-01-30T09:33:32.409Z,2304.00
2023-01-30T09:34:32.246Z,2323.00
2023-01-30T09:35:32.194Z,2338.00
2023-01-30T09:36:32.158Z,2349.00
2023-01-30T09:37:32.574Z,2365.00
2023-01-30T09:38:32.036Z,2374.00
2023-01-30T09:39:31.980Z,2399.00
2023-01-30T09:40:31.928Z,2423.00
2023-01-30T09:41:31.876Z,2445.00
2023-01-30T09:42:32.089Z,2459.00
2023-01-30T09:43:31.784Z,2475.00
2023-01-30T09:44:32.101Z,2491.00
2023-01-30T09:45:31.664Z,2531.00
2023-01-30T09:46:32.209Z,2548.00
2023-01-30T09:47:31.569Z,2567.00
2023-01-30T09:48:31.512Z,2588.00
2023-01-30T09:49:31.458Z,2604.00
2023-01-30T09:50:31.442Z,2619.00
2023-01-30T09:51:31.618Z,2617.00
2023-01-30T09:52:31.312Z,2622.00
2023-01-30T09:53:31.232Z,2626.00
2023-01-30T09:54:31.176Z,2640.00
2023-01-30T09:55:31.126Z,2658.00
2023-01-30T09:56:34.788Z,2673.00
2023-01-30T09:57:31.033Z,2701.00
2023-01-30T09:58:30.973Z,2720.00
2023-01-30T09:59:30.932Z,2734.00
2023-01-30T10:00:30.885Z,2749.00
2023-01-30T10:01:31.078Z,2761.00
2023-01-30T10:02:46.401Z,2754.00
2023-01-30T10:03:34.041Z,2745.00
2023-01-30T10:04:30.827Z,2732.00
2023-01-30T10:05:30.625Z,2730.00
2023-01-30T10:06:30.576Z,2737.00
2023-01-30T10:07:30.574Z,2752.00
2023-01-30T10:08:30.491Z,2774.00
2023-01-30T10:09:30.428Z,2794.00
2023-01-30T10:10:30.586Z,2803.00
2023-01-30T10:11:30.439Z,2814.00
2023-01-30T10:12:30.267Z,2833.00
2023-01-30T10:13:30.217Z,2845.00
2023-01-30T10:14:30.163Z,2869.00
2023-01-30T10:15:30.593Z,2883.00
2023-01-30T10:16:30.083Z,2902.00
2023-01-30T10:17:32.441Z,2914.00
2023-01-30T10:18:29.933Z,2924.00
2023-01-30T10:19:35.848Z,2943.00
2023-01-30T10:20:29.857Z,2957.00
2023-01-30T10:21:30.089Z,2982.00
2023-01-30T10:22:29.688Z,3000.00
2023-01-30T10:23:29.646Z,3016.00
2023-01-30T10:24:32.831Z,3020.00
2023-01-30T10:25:29.531Z,3046.00
2023-01-30T10:26:29.704Z,3069.00
2023-01-30T10:27:29.472Z,3074.00
2023-01-30T10:28:29.413Z,3084.00
2023-01-30T10:29:29.286Z,3100.00
2023-01-30T10:30:29.630Z,3113.00
2023-01-30T10:31:29.234Z,3122.00
2023-01-30T10:32:29.128Z,3127.00
2023-01-30T10:33:29.060Z,3126.00
2023-01-30T10:34:29.016Z,3121.00
2023-01-30T10:35:29.127Z,3107.00
2023-01-30T10:36:28.891Z,2657.00
2023-01-30T10:37:28.834Z,2825.00
2023-01-30T10:38:28.784Z,2857.00
2023-01-30T10:39:28.761Z,2846.00
2023-01-30T10:40:28.723Z,2713.00
2023-01-30T10:41:36.492Z,2290.00
2023-01-30T10:42:28.818Z,2350.00
2023-01-30T10:43:28.647Z,2341.00
2023-01-30T10:44:28.456Z,2217.00
2023-01-30T10:45:28.432Z,2174.00
2023-01-30T10:46:28.654Z,2135.00
2023-01-30T10:47:34.754Z,2126.00
2023-01-30T10:48:42.465Z,2122.00
2023-01-30T10:49:28.206Z,2103.00
2023-01-30T10:50:28.603Z,2090.00
2023-01-30T10:51:28.092Z,2080.00
2023-01-30T10:52:28.035Z,2075.00
2023-01-30T10:53:27.987Z,2076.00
2023-01-30T10:54:28.121Z,2080.00
2023-01-30T10:55:36.758Z,2089.00
2023-01-30T10:56:28.147Z,2097.00
2023-01-30T10:57:27.773Z,2102.00
2023-01-30T10:58:27.736Z,2107.00
2023-01-30T10:59:27.675Z,2117.00
2023-01-30T11:00:27.620Z,2120.00
2023-01-30T11:01:28.147Z,2135.00
2023-01-30T11:02:27.593Z,2167.00
2023-01-30T11:03:27.596Z,2175.00
2023-01-30T11:04:27.436Z,2173.00
2023-01-30T11:05:27.351Z,2186.00
2023-01-30T11:06:27.313Z,2207.00
2023-01-30T11:07:27.250Z,2226.00
2023-01-30T11:08:27.631Z,2241.00
2023-01-30T11:09:27.142Z,2247.00
2023-01-30T11:10:27.110Z,2250.00
2023-01-30T11:11:27.042Z,2249.00
2023-01-30T11:12:27.012Z,2256.00
2023-01-30T11:13:27.137Z,2256.00
2023-01-30T11:14:26.883Z,2256.00
2023-01-30T11:15:26.835Z,2261.00
2023-01-30T11:16:26.816Z,2258.00
2023-01-30T11:17:26.728Z,2249.00
2023-01-30T11:19:16.633Z,2247.00
2023-01-30T11:19:26.649Z,2247.00
2023-01-30T11:20:26.569Z,2206.00
2023-01-30T11:21:32.033Z,2174.00
2023-01-30T11:22:26.470Z,2189.00
2023-01-30T11:23:26.407Z,2205.00
2023-01-30T11:24:26.629Z,2214.00
2023-01-30T11:25:26.320Z,2218.00
2023-01-30T11:26:34.778Z,2206.00
2023-01-30T11:27:26.221Z,2202.00
2023-01-30T11:28:26.190Z,2198.00
2023-01-30T11:29:26.137Z,2199.00
2023-01-30T11:30:26.116Z,2196.00
2023-01-30T11:31:40.461Z,2193.00
2023-01-30T11:32:26.075Z,2194.00
2023-01-30T11:33:25.901Z,2184.00
2023-01-30T11:34:25.888Z,2175.00
2023-01-30T11:35:26.108Z,2167.00
2023-01-30T11:36:25.751Z,2165.00
2023-01-30T11:37:25.705Z,2160.00
2023-01-30T11:38:25.671Z,2159.00
2023-01-30T11:39:25.614Z,2154.00
2023-01-30T11:40:25.562Z,2151.00
2023-01-30T11:41:25.516Z,2144.00
2023-01-30T11:42:25.461Z,2141.00
2023-01-30T11:43:25.635Z,2139.00
2023-01-30T11:44:25.394Z,2141.00
2023-01-30T11:45:25.621Z,2138.00
2023-01-30T11:46:25.273Z,2134.00
2023-01-30T11:47:25.552Z,2134.00
2023-01-30T11:49:01.419Z,2130.00
2023-01-30T11:49:47.137Z,2126.00
2023-01-30T11:50:31.644Z,2122.00
2023-01-30T11:51:25.035Z,2111.00
2023-01-30T11:52:25.111Z,2105.00
2023-01-30T11:53:24.950Z,2105.00
2023-01-30T11:54:24.894Z,2104.00
2023-01-30T11:55:24.833Z,2106.00
2023-01-30T11:56:24.786Z,2104.00
2023-01-30T11:57:25.112Z,2096.00
2023-01-30T11:58:24.702Z,2093.00
2023-01-30T11:59:24.670Z,2086.00
2023-01-30T12:00:25.168Z,2084.00
2023-01-30T12:01:24.615Z,2085.00
2023-01-30T12:02:24.699Z,2082.00
2023-01-30T12:03:24.522Z,2080.00
2023-01-30T12:04:24.429Z,2078.00
2023-01-30T12:05:24.388Z,2076.00
2023-01-30T12:06:24.627Z,2072.00
2023-01-30T12:07:24.324Z,2067.00
2023-01-30T12:08:39.349Z,2063.00
2023-01-30T12:09:24.228Z,2056.00
2023-01-30T12:10:24.631Z,2054.00
2023-01-30T12:11:24.146Z,1536.00
2023-01-30T12:12:24.094Z,984.00
2023-01-30T12:13:24.064Z,819.00
2023-01-30T12:14:24.035Z,887.00
2023-01-30T12:15:24.129Z,942.00
2023-01-30T12:16:24.070Z,1012.00
2023-01-30T12:17:23.959Z,1153.00
2023-01-30T12:18:23.940Z,1100.00
2023-01-30T12:19:24.149Z,1105.00
2023-01-30T12:20:24.127Z,1128.00
2023-01-30T12:21:23.866Z,1129.00
2023-01-30T12:22:23.843Z,1102.00
2023-01-30T12:23:23.812Z,1048.00
2023-01-30T12:24:23.792Z,1034.00
2023-01-30T12:25:24.154Z,1029.00
2023-01-30T12:26:23.754Z,1031.00
2023-01-30T12:27:23.683Z,1044.00
2023-01-30T12:28:23.665Z,1039.00
2023-01-30T12:29:23.648Z,1029.00
2023-01-30T12:30:23.671Z,1020.00
2023-01-30T12:31:23.574Z,1014.00
2023-01-30T12:32:23.593Z,1002.00
2023-01-30T12:33:23.631Z,996.00
2023-01-30T12:34:27.071Z,1000.00
2023-01-30T12:35:24.617Z,999.00
2023-01-30T12:36:23.434Z,1000.00
2023-01-30T12:37:23.370Z,1002.00
2023-01-30T12:38:23.333Z,1009.00
2023-01-30T12:39:23.297Z,1010.00
2023-01-30T12:40:23.254Z,1015.00
2023-01-30T12:41:23.639Z,1023.00
2023-01-30T12:42:25.421Z,1029.00
2023-01-30T12:43:23.192Z,1033.00
2023-01-30T12:44:23.114Z,1044.00
2023-01-30T12:45:23.069Z,1051.00
2023-01-30T12:46:23.248Z,1057.00
2023-01-30T12:47:23.006Z,1061.00
2023-01-30T12:48:23.007Z,1065.00
2023-01-30T12:49:22.925Z,1069.00
2023-01-30T12:50:22.892Z,1073.00
2023-01-30T12:51:23.137Z,1072.00
2023-01-30T12:52:22.823Z,1075.00
2023-01-30T12:53:22.792Z,1076.00
2023-01-30T12:54:22.747Z,1079.00
2023-01-30T12:55:22.710Z,1084.00
2023-01-30T12:56:23.136Z,1085.00
2023-01-30T12:57:22.655Z,1088.00
2023-01-30T12:58:22.613Z,1088.00
2023-01-30T12:59:22.558Z,1088.00
2023-01-30T13:00:22.747Z,1091.00
2023-01-30T13:01:22.668Z,1094.00
2023-01-30T13:02:24.807Z,1095.00
2023-01-30T13:03:22.398Z,1095.00
2023-01-30T13:04:22.436Z,1098.00
2023-01-30T13:05:22.378Z,1100.00
2023-01-30T13:06:22.286Z,1102.00
2023-01-30T13:07:22.642Z,1098.00
2023-01-30T13:08:22.218Z,1099.00